METAR Data
IDs: Format: Raw Decoded Include TAF

Data at: 0146 UTC 20 Jul 2019

METAR for:PAVC (King Cove Arpt, AK, US)
Text:PAVC 200106Z AUTO 26027G35KT 10SM FEW006 SCT010 BKN110 14/11 A3026 RMK AO2 PK WND 26035/0105
Temperature: 14.0°C ( 57°F)
Dewpoint: 11.0°C ( 52°F) [RH = 82%]
Pressure (altimeter):30.26 inches Hg (1024.8 mb)
Winds:from the W (260 degrees) at 31 MPH (27 knots; 13.9 m/s) gusting to 40 MPH (35 knots; 18.0 m/s)
Visibility:10 or more sm (16+ km)
Ceiling:11000 feet AGL
Clouds: few clouds at 600 feet AGL, scattered clouds at 1000 feet AGL, broken clouds at 11000 feet AGL
QC Flag:automated observation with no human augmentation
Text:PAVC 200056Z AUTO 25022G31KT 8SM BKN008 BKN014 OVC110 13/11 A3025 RMK AO2 PK WND 27035/0043 RAB14E24 CIG 004V011 SLP251 P0000 T01330106
Temperature: 13.3°C ( 56°F)
Dewpoint: 10.6°C ( 51°F) [RH = 84%]
Pressure (altimeter):30.25 inches Hg (1024.5 mb) [Sea level pressure: 1025.1 mb]
Winds:from the WSW (250 degrees) at 25 MPH (22 knots; 11.3 m/s) gusting to 36 MPH (31 knots; 15.9 m/s)
Visibility: 8 sm ( 13 km)
Ceiling:800 feet AGL
Clouds: broken clouds at 800 feet AGL, broken clouds at 1400 feet AGL, overcast cloud deck at 11000 feet AGL
QC Flag:automated observation with no human augmentation
Text:PAVC 200007Z AUTO 26021G29KT 10SM SCT009 OVC014 14/11 A3027 RMK AO2 PK WND 26029/0005
Temperature: 14.0°C ( 57°F)
Dewpoint: 11.0°C ( 52°F) [RH = 82%]
Pressure (altimeter):30.27 inches Hg (1025.1 mb)
Winds:from the W (260 degrees) at 24 MPH (21 knots; 10.8 m/s) gusting to 33 MPH (29 knots; 14.9 m/s)
Visibility:10 or more sm (16+ km)
Ceiling:1400 feet AGL
Clouds: scattered clouds at 900 feet AGL, overcast cloud deck at 1400 feet AGL
QC Flag:automated observation with no human augmentation
Text:PAVC 192356Z AUTO 26021G33KT 10SM BKN009 OVC014 14/10 A3027 RMK AO2 PK WND 26037/2311 CIG 004V013 SLP257 T01390100 10144 20117 51007
Temperature: 13.9°C ( 57°F)
Dewpoint: 10.0°C ( 50°F) [RH = 77%]
Pressure (altimeter):30.27 inches Hg (1025.1 mb) [Sea level pressure: 1025.7 mb]
Winds:from the W (260 degrees) at 24 MPH (21 knots; 10.8 m/s) gusting to 38 MPH (33 knots; 17.0 m/s)
Visibility:10 or more sm (16+ km)
Ceiling:900 feet AGL
Clouds: broken clouds at 900 feet AGL, overcast cloud deck at 1400 feet AGL
QC Flag:automated observation with no human augmentation
Text:PAVC 192354Z AUTO 26026G33KT 10SM SCT009 OVC014 14/10 A3027 RMK AO2 PK WND 26037/2311
Temperature: 14.0°C ( 57°F)
Dewpoint: 10.0°C ( 50°F) [RH = 77%]
Pressure (altimeter):30.27 inches Hg (1025.1 mb)
Winds:from the W (260 degrees) at 30 MPH (26 knots; 13.4 m/s) gusting to 38 MPH (33 knots; 17.0 m/s)
Visibility:10 or more sm (16+ km)
Ceiling:1400 feet AGL
Clouds: scattered clouds at 900 feet AGL, overcast cloud deck at 1400 feet AGL
QC Flag:automated observation with no human augmentation
Text:PAVC 192347Z AUTO 26023G33KT 9SM BKN009 OVC014 14/10 A3027 RMK AO2 PK WND 26037/2311 CIG 004V012
Temperature: 14.0°C ( 57°F)
Dewpoint: 10.0°C ( 50°F) [RH = 77%]
Pressure (altimeter):30.27 inches Hg (1025.1 mb)
Winds:from the W (260 degrees) at 26 MPH (23 knots; 11.8 m/s) gusting to 38 MPH (33 knots; 17.0 m/s)
Visibility: 9 sm ( 14 km)
Ceiling:900 feet AGL
Clouds: broken clouds at 900 feet AGL, overcast cloud deck at 1400 feet AGL
QC Flag:automated observation with no human augmentation
Text:PAVC 192309Z AUTO 26025G34KT 10SM FEW004 BKN011 BKN014 14/10 A3026 RMK AO2 PK WND 27034/2305 CIG 006V011
Temperature: 14.0°C ( 57°F)
Dewpoint: 10.0°C ( 50°F) [RH = 77%]
Pressure (altimeter):30.26 inches Hg (1024.8 mb)
Winds:from the W (260 degrees) at 29 MPH (25 knots; 12.9 m/s) gusting to 39 MPH (34 knots; 17.5 m/s)
Visibility:10 or more sm (16+ km)
Ceiling:1100 feet AGL
Clouds: few clouds at 400 feet AGL, broken clouds at 1100 feet AGL, broken clouds at 1400 feet AGL
QC Flag:automated observation with no human augmentation
Text:PAVC 192256Z AUTO 27027G35KT 8SM SCT006 BKN009 OVC120 14/11 A3027 RMK AO2 PK WND 27037/2245 SLP255 T01390106
Temperature: 13.9°C ( 57°F)
Dewpoint: 10.6°C ( 51°F) [RH = 80%]
Pressure (altimeter):30.27 inches Hg (1025.1 mb) [Sea level pressure: 1025.5 mb]
Winds:from the W (270 degrees) at 31 MPH (27 knots; 13.9 m/s) gusting to 40 MPH (35 knots; 18.0 m/s)
Visibility: 8 sm ( 13 km)
Ceiling:900 feet AGL
Clouds: scattered clouds at 600 feet AGL, broken clouds at 900 feet AGL, overcast cloud deck at 12000 feet AGL
QC Flag:automated observation with no human augmentation
Text:PAVC 192249Z AUTO 26028G37KT 7SM SCT009 BKN014 BKN120 14/10 A3026 RMK AO2 PK WND 27037/2245
Temperature: 14.0°C ( 57°F)
Dewpoint: 10.0°C ( 50°F) [RH = 77%]
Pressure (altimeter):30.26 inches Hg (1024.8 mb)
Winds:from the W (260 degrees) at 32 MPH (28 knots; 14.4 m/s) gusting to 43 MPH (37 knots; 19.0 m/s)
Visibility: 7 sm ( 11 km)
Ceiling:1400 feet AGL
Clouds: scattered clouds at 900 feet AGL, broken clouds at 1400 feet AGL, broken clouds at 12000 feet AGL
QC Flag:automated observation with no human augmentation
Text:PAVC 192156Z AUTO 26025G33KT 10SM FEW005 14/10 A3025 RMK AO2 PK WND 26036/2109 SLP250 T01390100
Temperature: 13.9°C ( 57°F)
Dewpoint: 10.0°C ( 50°F) [RH = 77%]
Pressure (altimeter):30.25 inches Hg (1024.5 mb) [Sea level pressure: 1025.0 mb]
Winds:from the W (260 degrees) at 29 MPH (25 knots; 12.9 m/s) gusting to 38 MPH (33 knots; 17.0 m/s)
Visibility:10 or more sm (16+ km)
Ceiling:at least 12,000 feet AGL
Clouds: few clouds at 500 feet AGL
QC Flag:automated observation with no human augmentation
Text:PAVC 192056Z AUTO 27027G35KT 10SM SCT009 SCT013 BKN120 13/09 A3025 RMK AO2 PK WND 27035/2054 SLP249 T01330094 58001
Temperature: 13.3°C ( 56°F)
Dewpoint: 9.4°C ( 49°F) [RH = 77%]
Pressure (altimeter):30.25 inches Hg (1024.5 mb) [Sea level pressure: 1024.9 mb]
Winds:from the W (270 degrees) at 31 MPH (27 knots; 13.9 m/s) gusting to 40 MPH (35 knots; 18.0 m/s)
Visibility:10 or more sm (16+ km)
Ceiling:12000 feet AGL
Clouds: scattered clouds at 900 feet AGL, scattered clouds at 1300 feet AGL, broken clouds at 12000 feet AGL
QC Flag:automated observation with no human augmentation
Text:PAVC 192000Z AUTO 27022G28KT 6SM HZ FEW005 BKN013 BKN020 12/09 A3027 RMK AO2
Temperature: 12.0°C ( 54°F)
Dewpoint: 9.0°C ( 48°F) [RH = 82%]
Pressure (altimeter):30.27 inches Hg (1025.1 mb)
Winds:from the W (270 degrees) at 25 MPH (22 knots; 11.3 m/s) gusting to 32 MPH (28 knots; 14.4 m/s)
Visibility: 6 sm ( 10 km)
Ceiling:1300 feet AGL
Clouds: few clouds at 500 feet AGL, broken clouds at 1300 feet AGL, broken clouds at 2000 feet AGL
Weather:HZ (haze)
QC Flag:automated observation with no human augmentation
Text:PAVC 191956Z AUTO 26020G28KT 7SM SCT013 BKN020 12/09 A3027 RMK AO2 PK WND 28032/1927 SLP256 T01220089
Temperature: 12.2°C ( 54°F)
Dewpoint: 8.9°C ( 48°F) [RH = 80%]
Pressure (altimeter):30.27 inches Hg (1025.1 mb) [Sea level pressure: 1025.6 mb]
Winds:from the W (260 degrees) at 23 MPH (20 knots; 10.3 m/s) gusting to 32 MPH (28 knots; 14.4 m/s)
Visibility: 7 sm ( 11 km)
Ceiling:2000 feet AGL
Clouds: scattered clouds at 1300 feet AGL, broken clouds at 2000 feet AGL
QC Flag:automated observation with no human augmentation
Text:PAVC 191948Z AUTO 27021G27KT 10SM SCT013 BKN020 12/09 A3027 RMK AO2 PK WND 28032/1927
Temperature: 12.0°C ( 54°F)
Dewpoint: 9.0°C ( 48°F) [RH = 82%]
Pressure (altimeter):30.27 inches Hg (1025.1 mb)
Winds:from the W (270 degrees) at 24 MPH (21 knots; 10.8 m/s) gusting to 31 MPH (27 knots; 13.9 m/s)
Visibility:10 or more sm (16+ km)
Ceiling:2000 feet AGL
Clouds: scattered clouds at 1300 feet AGL, broken clouds at 2000 feet AGL
QC Flag:automated observation with no human augmentation

TAF for:PAVC (King Cove Arpt, AK, US)
Text:No data found